createdAt,value
2022-09-23T00:00:49.897Z,9.69
2022-09-23T00:01:49.691Z,9.69
2022-09-23T00:02:49.529Z,9.68
2022-09-23T00:03:49.519Z,9.67
2022-09-23T00:04:49.506Z,9.67
2022-09-23T00:05:49.872Z,9.67
2022-09-23T00:06:49.962Z,9.68
2022-09-23T00:07:49.668Z,9.66
2022-09-23T00:08:49.792Z,9.68
2022-09-23T00:09:49.576Z,9.71
2022-09-23T00:10:55.658Z,9.67
2022-09-23T00:11:49.643Z,9.66
2022-09-23T00:12:49.590Z,9.65
2022-09-23T00:13:49.599Z,9.6
2022-09-23T00:14:49.579Z,9.54
2022-09-23T00:15:49.951Z,9.54
2022-09-23T00:16:49.755Z,9.57
2022-09-23T00:17:49.535Z,9.58
2022-09-23T00:18:49.542Z,9.56
2022-09-23T00:19:49.627Z,9.6
2022-09-23T00:20:49.880Z,9.6
2022-09-23T00:21:55.560Z,9.61
2022-09-23T00:22:49.710Z,9.66
2022-09-23T00:23:49.616Z,9.68
2022-09-23T00:24:49.515Z,9.64
2022-09-23T00:25:49.960Z,9.63
2022-09-23T00:26:49.593Z,9.63
2022-09-23T00:27:49.628Z,9.63
2022-09-23T00:28:49.626Z,9.59
2022-09-23T00:29:49.616Z,9.57
2022-09-23T00:30:50.043Z,9.55
2022-09-23T00:31:49.740Z,9.55
2022-09-23T00:32:52.654Z,9.55
2022-09-23T00:33:49.599Z,9.6
2022-09-23T00:34:49.644Z,9.61
2022-09-23T00:35:49.894Z,9.59
2022-09-23T00:36:49.887Z,9.57
2022-09-23T00:37:49.594Z,9.54
2022-09-23T00:38:49.603Z,9.56
2022-09-23T00:39:49.654Z,9.62
2022-09-23T00:40:49.947Z,9.63
2022-09-23T00:41:49.679Z,9.59
2022-09-23T00:42:49.515Z,9.54
2022-09-23T00:43:52.563Z,9.49
2022-09-23T00:44:49.614Z,9.44
2022-09-23T00:45:49.986Z,9.43
2022-09-23T00:46:49.637Z,9.45
2022-09-23T00:47:49.508Z,9.45
2022-09-23T00:48:49.497Z,9.41
2022-09-23T00:49:49.515Z,9.39
2022-09-23T00:50:49.962Z,9.35
2022-09-23T00:51:49.878Z,9.33
2022-09-23T00:52:49.733Z,9.32
2022-09-23T00:53:49.737Z,9.31
2022-09-23T00:54:52.564Z,9.27
2022-09-23T00:55:49.876Z,9.22
2022-09-23T00:56:49.696Z,9.22
2022-09-23T00:57:49.593Z,9.23
2022-09-23T00:58:49.649Z,9.21
2022-09-23T00:59:49.574Z,9.18
2022-09-23T01:00:49.887Z,9.17
2022-09-23T01:01:49.740Z,9.13
2022-09-23T01:02:49.714Z,9.11
2022-09-23T01:03:49.668Z,9.08
2022-09-23T01:04:49.502Z,9.09
2022-09-23T01:05:55.576Z,9.1
2022-09-23T01:06:49.885Z,9.08
2022-09-23T01:07:49.700Z,9.1
2022-09-23T01:08:49.510Z,9.1
2022-09-23T01:09:49.525Z,9.11
2022-09-23T01:10:49.886Z,9.11
2022-09-23T01:11:49.551Z,9.11
2022-09-23T01:12:49.502Z,9.11
2022-09-23T01:13:49.657Z,9.1
2022-09-23T01:14:49.627Z,9.1
2022-09-23T01:15:49.945Z,9.1
2022-09-23T01:16:52.759Z,9.11
2022-09-23T01:17:49.655Z,9.09
2022-09-23T01:18:49.534Z,9.04
2022-09-23T01:19:49.615Z,9.03
2022-09-23T01:20:49.875Z,9.02
2022-09-23T01:21:49.982Z,9.06
2022-09-23T01:22:49.618Z,9.09
2022-09-23T01:23:49.678Z,9.09
2022-09-23T01:24:49.707Z,9.08
2022-09-23T01:25:49.945Z,9.06
2022-09-23T01:26:49.604Z,9.07
2022-09-23T01:27:52.519Z,9.06
2022-09-23T01:28:49.595Z,9.05
2022-09-23T01:29:49.514Z,9.02
2022-09-23T01:30:50.002Z,9.03
2022-09-23T01:31:49.593Z,9.01
2022-09-23T01:32:49.517Z,8.99
2022-09-23T01:33:49.530Z,8.99
2022-09-23T01:34:49.520Z,9
2022-09-23T01:35:49.956Z,9
2022-09-23T01:36:49.883Z,8.99
2022-09-23T01:37:49.604Z,8.95
2022-09-23T01:38:52.602Z,8.95
2022-09-23T01:39:49.576Z,8.95
2022-09-23T01:40:50.071Z,8.92
2022-09-23T01:41:49.698Z,8.95
2022-09-23T01:42:49.517Z,8.98
2022-09-23T01:43:49.564Z,8.96
2022-09-23T01:44:49.667Z,8.92
2022-09-23T01:45:49.947Z,8.9
2022-09-23T01:46:49.718Z,8.9
2022-09-23T01:47:49.719Z,8.9
2022-09-23T01:48:49.605Z,8.87
2022-09-23T01:49:52.625Z,8.86
2022-09-23T01:50:49.883Z,8.86
2022-09-23T01:51:49.878Z,8.83
2022-09-23T01:52:49.584Z,8.81
2022-09-23T01:53:49.524Z,8.83
2022-09-23T01:54:49.515Z,8.81
2022-09-23T01:55:49.884Z,8.81
2022-09-23T01:56:49.657Z,8.87
2022-09-23T01:57:49.709Z,8.92
2022-09-23T01:58:49.712Z,8.92
2022-09-23T01:59:49.589Z,8.92
2022-09-23T02:00:52.748Z,8.91
2022-09-23T02:01:49.669Z,8.89
2022-09-23T02:02:49.802Z,8.88
2022-09-23T02:03:49.587Z,8.76
2022-09-23T02:04:49.632Z,8.73
2022-09-23T02:05:50.062Z,8.74
2022-09-23T02:06:49.874Z,8.72
2022-09-23T02:07:49.622Z,8.69
2022-09-23T02:08:49.577Z,8.74
2022-09-23T02:09:49.644Z,8.76
2022-09-23T02:10:49.878Z,8.75
2022-09-23T02:11:52.670Z,8.75
2022-09-23T02:12:49.602Z,8.78
2022-09-23T02:13:49.502Z,8.8
2022-09-23T02:14:49.520Z,8.81
2022-09-23T02:15:49.939Z,8.8
2022-09-23T02:16:49.697Z,8.81
2022-09-23T02:17:49.504Z,8.82
2022-09-23T02:18:49.524Z,8.79
2022-09-23T02:19:49.635Z,8.78
2022-09-23T02:20:49.869Z,8.78
2022-09-23T02:21:49.884Z,8.77
2022-09-23T02:22:52.541Z,8.75
2022-09-23T02:23:49.685Z,8.72
2022-09-23T02:24:49.703Z,8.74
2022-09-23T02:25:49.887Z,8.74
2022-09-23T02:26:49.710Z,8.74
2022-09-23T02:27:49.673Z,8.74
2022-09-23T02:28:52.517Z,8.74
2022-09-23T02:29:49.691Z,8.74
2022-09-23T02:30:49.949Z,8.74
2022-09-23T02:31:49.806Z,8.71
2022-09-23T02:32:49.572Z,8.71
2022-09-23T02:33:49.582Z,8.7
2022-09-23T02:34:49.509Z,8.71
2022-09-23T02:35:49.943Z,8.7
2022-09-23T02:36:49.881Z,8.7
2022-09-23T02:37:49.619Z,8.68
2022-09-23T02:38:49.533Z,8.65
2022-09-23T02:39:52.580Z,8.67
2022-09-23T02:40:49.915Z,8.67
2022-09-23T02:41:49.600Z,8.67
2022-09-23T02:42:49.602Z,8.69
2022-09-23T02:43:49.605Z,8.67
2022-09-23T02:44:49.658Z,8.64
2022-09-23T02:45:49.732Z,8.66
2022-09-23T02:46:49.607Z,8.65
2022-09-23T02:47:49.597Z,8.63
2022-09-23T02:48:49.720Z,8.63
2022-09-23T02:49:49.707Z,8.61
2022-09-23T02:50:55.616Z,8.58
2022-09-23T02:51:49.984Z,8.58
2022-09-23T02:52:49.590Z,8.57
2022-09-23T02:53:49.511Z,8.56
2022-09-23T02:54:49.614Z,8.53
2022-09-23T02:55:49.881Z,8.52
2022-09-23T02:56:49.515Z,8.52
2022-09-23T02:57:49.498Z,8.5
2022-09-23T02:58:49.621Z,8.53
2022-09-23T02:59:49.512Z,8.54
2022-09-23T03:00:49.653Z,8.56
2022-09-23T03:01:52.581Z,8.55
2022-09-23T03:02:49.731Z,8.57
2022-09-23T03:03:49.587Z,8.55
2022-09-23T03:04:49.546Z,8.57
2022-09-23T03:05:49.958Z,8.57
2022-09-23T03:06:49.880Z,8.56
2022-09-23T03:07:49.649Z,8.55
2022-09-23T03:08:49.602Z,8.54
2022-09-23T03:09:49.597Z,8.52
2022-09-23T03:10:49.957Z,8.51
2022-09-23T03:11:49.708Z,8.48
2022-09-23T03:12:52.549Z,8.45
2022-09-23T03:13:49.611Z,8.45
2022-09-23T03:14:49.559Z,8.43
2022-09-23T03:15:49.944Z,8.4
2022-09-23T03:16:49.640Z,8.37
2022-09-23T03:17:49.628Z,8.44
2022-09-23T03:18:49.623Z,8.5
2022-09-23T03:19:49.616Z,8.53
2022-09-23T03:20:49.882Z,8.54
2022-09-23T03:21:49.878Z,8.5
2022-09-23T03:22:49.593Z,8.49
2022-09-23T03:23:52.529Z,8.46
2022-09-23T03:24:53.744Z,8.47
2022-09-23T03:25:49.946Z,8.49
2022-09-23T03:26:49.587Z,8.5
2022-09-23T03:27:49.607Z,8.49
2022-09-23T03:28:49.621Z,8.5
2022-09-23T03:29:49.504Z,8.5
2022-09-23T03:30:49.947Z,8.5
2022-09-23T03:31:49.796Z,8.47
2022-09-23T03:32:49.580Z,8.43
2022-09-23T03:33:49.520Z,8.43
2022-09-23T03:34:52.630Z,8.48
2022-09-23T03:35:50.100Z,8.49
2022-09-23T03:36:49.870Z,8.53
2022-09-23T03:37:49.691Z,8.53
2022-09-23T03:38:49.620Z,8.49
2022-09-23T03:39:49.702Z,8.49
2022-09-23T03:40:49.701Z,8.53
2022-09-23T03:41:49.654Z,8.57
2022-09-23T03:42:49.610Z,8.57
2022-09-23T03:43:49.612Z,8.55
2022-09-23T03:44:49.590Z,8.54
2022-09-23T03:45:52.650Z,8.53
2022-09-23T03:46:49.762Z,8.52
2022-09-23T03:47:49.618Z,8.55
2022-09-23T03:48:49.609Z,8.58
2022-09-23T03:49:49.517Z,8.62
2022-09-23T03:50:49.675Z,8.61
2022-09-23T03:51:49.881Z,8.63
2022-09-23T03:52:49.658Z,8.67
2022-09-23T03:53:49.664Z,8.69
2022-09-23T03:54:49.635Z,8.69
2022-09-23T03:55:49.872Z,8.68
2022-09-23T03:56:52.649Z,8.69
2022-09-23T03:57:49.575Z,8.71
2022-09-23T03:58:49.630Z,8.69
2022-09-23T03:59:49.600Z,8.7
2022-09-23T04:00:50.064Z,8.7
2022-09-23T04:01:49.747Z,8.71
2022-09-23T04:02:49.615Z,8.71
2022-09-23T04:03:49.589Z,8.71
2022-09-23T04:04:49.633Z,8.7
2022-09-23T04:05:49.626Z,8.68
2022-09-23T04:06:49.884Z,8.67
2022-09-23T04:07:52.544Z,8.65
2022-09-23T04:08:49.656Z,8.63
2022-09-23T04:09:49.633Z,8.63
2022-09-23T04:10:54.137Z,8.63
2022-09-23T04:11:49.605Z,8.63
2022-09-23T04:12:49.618Z,8.62
2022-09-23T04:13:49.638Z,8.61
2022-09-23T04:14:49.628Z,8.62
2022-09-23T04:15:49.878Z,8.61
2022-09-23T04:16:49.744Z,8.63
2022-09-23T04:17:49.590Z,8.65
2022-09-23T04:18:52.588Z,8.63
2022-09-23T04:19:49.674Z,8.61
2022-09-23T04:20:49.946Z,8.63
2022-09-23T04:21:49.886Z,8.65
2022-09-23T04:22:49.601Z,8.66
2022-09-23T04:23:49.632Z,8.67
2022-09-23T04:24:49.626Z,8.67
2022-09-23T04:25:49.954Z,8.69
2022-09-23T04:26:49.746Z,8.72
2022-09-23T04:27:49.596Z,8.75
2022-09-23T04:28:49.521Z,8.76
2022-09-23T04:29:52.561Z,8.75
2022-09-23T04:30:49.871Z,8.72
2022-09-23T04:31:49.657Z,8.7
2022-09-23T04:32:49.543Z,8.68
2022-09-23T04:33:49.525Z,8.72
2022-09-23T04:34:49.519Z,8.75
2022-09-23T04:35:49.871Z,8.77
2022-09-23T04:36:49.948Z,8.76
2022-09-23T04:37:49.737Z,8.76
2022-09-23T04:38:49.687Z,8.78
2022-09-23T04:39:49.579Z,8.8
2022-09-23T04:40:52.739Z,8.8
2022-09-23T04:41:49.713Z,8.79
2022-09-23T04:42:49.603Z,8.79
2022-09-23T04:43:49.498Z,8.8
2022-09-23T04:44:51.086Z,8.78
2022-09-23T04:45:49.879Z,8.79
2022-09-23T04:46:49.733Z,8.82
2022-09-23T04:47:49.632Z,8.85
2022-09-23T04:48:49.671Z,8.83
2022-09-23T04:49:49.665Z,8.83
2022-09-23T04:50:49.874Z,8.85
2022-09-23T04:51:55.687Z,8.87
2022-09-23T04:52:49.701Z,8.88
2022-09-23T04:53:49.530Z,8.87
2022-09-23T04:54:49.497Z,8.87
2022-09-23T04:55:49.943Z,8.86
2022-09-23T04:56:49.635Z,8.83
2022-09-23T04:57:49.611Z,8.81
2022-09-23T04:58:49.671Z,8.78
2022-09-23T04:59:49.705Z,8.76
2022-09-23T05:00:49.765Z,8.71
2022-09-23T05:01:49.649Z,8.68
2022-09-23T05:02:52.651Z,8.65
2022-09-23T05:03:49.682Z,8.64
2022-09-23T05:04:49.603Z,8.64
2022-09-23T05:05:49.950Z,8.61
2022-09-23T05:06:50.098Z,8.59
2022-09-23T05:07:49.679Z,8.58
2022-09-23T05:08:49.505Z,8.61
2022-09-23T05:09:49.517Z,8.63
2022-09-23T05:10:49.612Z,8.63
2022-09-23T05:11:49.720Z,8.61
2022-09-23T05:12:52.444Z,8.61
2022-09-23T05:13:52.555Z,8.61
2022-09-23T05:14:49.662Z,8.63
2022-09-23T05:15:49.998Z,8.64
2022-09-23T05:16:49.594Z,8.65
2022-09-23T05:17:49.627Z,8.64
2022-09-23T05:18:49.584Z,8.68
2022-09-23T05:19:49.499Z,8.69
2022-09-23T05:20:49.956Z,8.71
2022-09-23T05:21:49.884Z,8.74
2022-09-23T05:22:49.735Z,8.76
2022-09-23T05:23:49.700Z,8.79
2022-09-23T05:24:52.698Z,8.82
2022-09-23T05:25:49.878Z,8.85
2022-09-23T05:26:49.739Z,8.88
2022-09-23T05:27:49.599Z,8.96
2022-09-23T05:28:49.521Z,8.98
2022-09-23T05:29:49.511Z,9.02
2022-09-23T05:30:49.877Z,9.05
2022-09-23T05:31:49.736Z,9.07
2022-09-23T05:32:49.711Z,9.09
2022-09-23T05:33:49.518Z,9.12
2022-09-23T05:34:49.509Z,9.2
2022-09-23T05:35:55.607Z,9.22
2022-09-23T05:36:49.636Z,9.25
2022-09-23T05:37:49.533Z,9.29
2022-09-23T05:38:49.501Z,9.32
2022-09-23T05:39:49.686Z,9.34
2022-09-23T05:40:49.602Z,9.36
2022-09-23T05:41:49.523Z,9.41
2022-09-23T05:42:49.615Z,9.46
2022-09-23T05:43:49.617Z,9.52
2022-09-23T05:44:49.522Z,9.61
2022-09-23T05:45:49.951Z,9.7
2022-09-23T05:46:52.717Z,9.71
2022-09-23T05:47:49.691Z,9.74
2022-09-23T05:48:49.605Z,9.81
2022-09-23T05:49:59.577Z,9.89
2022-09-23T05:50:49.946Z,9.98
2022-09-23T05:51:49.877Z,9.99
2022-09-23T05:52:49.613Z,9.99
2022-09-23T05:53:49.599Z,10.04
2022-09-23T05:54:49.629Z,10.09
2022-09-23T05:55:50.004Z,10.11
2022-09-23T05:56:49.723Z,10.16
2022-09-23T05:57:52.557Z,10.16
2022-09-23T05:58:49.592Z,10.22
2022-09-23T05:59:49.498Z,10.27
2022-09-23T06:00:49.947Z,10.3
2022-09-23T06:01:52.082Z,10.35
2022-09-23T06:02:49.571Z,10.33
2022-09-23T06:03:49.525Z,10.37
2022-09-23T06:04:49.624Z,10.4
2022-09-23T06:05:49.951Z,10.43
2022-09-23T06:06:49.878Z,10.52
2022-09-23T06:07:49.608Z,10.61
2022-09-23T06:08:52.666Z,10.71
2022-09-23T06:09:49.726Z,10.79
2022-09-23T06:10:54.193Z,10.94
2022-09-23T06:11:49.726Z,11.25
2022-09-23T06:12:49.592Z,11.68
2022-09-23T06:13:49.506Z,12.14
2022-09-23T06:14:49.553Z,12.46
2022-09-23T06:15:50.007Z,12.63
2022-09-23T06:16:49.708Z,12.64
2022-09-23T06:17:49.681Z,12.8
2022-09-23T06:18:49.623Z,12.98
2022-09-23T06:19:52.683Z,13.03
2022-09-23T06:20:49.888Z,13.05
2022-09-23T06:21:49.705Z,13.11
2022-09-23T06:22:52.685Z,13.21
2022-09-23T06:23:50.862Z,13.24
2022-09-23T06:24:49.504Z,13.26
2022-09-23T06:25:49.978Z,13.24
2022-09-23T06:26:49.513Z,13.25
2022-09-23T06:27:49.714Z,13.06
2022-09-23T06:28:49.687Z,12.72
2022-09-23T06:29:49.631Z,12.58
2022-09-23T06:30:55.705Z,12.34
2022-09-23T06:31:49.816Z,12.15
2022-09-23T06:32:49.670Z,12.02
2022-09-23T06:33:49.976Z,11.92
2022-09-23T06:34:51.854Z,11.83
2022-09-23T06:35:55.380Z,11.8
2022-09-23T06:36:49.880Z,11.68
2022-09-23T06:37:49.639Z,11.62
2022-09-23T06:38:49.734Z,11.66
2022-09-23T06:39:49.728Z,11.67
2022-09-23T06:40:49.772Z,11.57
2022-09-23T06:41:52.662Z,11.48
2022-09-23T06:42:52.368Z,11.39
2022-09-23T06:43:49.520Z,11.39
2022-09-23T06:44:49.518Z,11.41
2022-09-23T06:45:49.955Z,11.37
2022-09-23T06:46:49.977Z,11.33
2022-09-23T06:47:49.585Z,11.42
2022-09-23T06:48:49.491Z,11.34
2022-09-23T06:49:49.554Z,11.26
2022-09-23T06:50:49.950Z,11.24
2022-09-23T06:51:49.880Z,11.21
2022-09-23T06:52:52.574Z,11.29
2022-09-23T06:53:49.748Z,11.34
2022-09-23T06:54:49.617Z,11.44
2022-09-23T06:55:49.953Z,11.5
2022-09-23T06:56:49.575Z,11.37
2022-09-23T06:57:49.517Z,11.38
2022-09-23T06:58:49.650Z,11.5
2022-09-23T06:59:49.588Z,11.63
2022-09-23T07:00:49.954Z,11.67
2022-09-23T07:01:49.819Z,11.64
2022-09-23T07:02:49.792Z,11.65
2022-09-23T07:03:52.672Z,11.75
2022-09-23T07:04:49.721Z,11.86
2022-09-23T07:05:49.889Z,11.86
2022-09-23T07:06:49.875Z,11.75
2022-09-23T07:07:49.593Z,11.76
2022-09-23T07:08:49.645Z,11.79
2022-09-23T07:09:49.500Z,11.76
2022-09-23T07:10:49.551Z,11.77
2022-09-23T07:11:51.195Z,11.75
2022-09-23T07:12:49.736Z,11.77
2022-09-23T07:13:49.643Z,11.88
2022-09-23T07:14:52.627Z,11.94
2022-09-23T07:15:49.947Z,11.87
2022-09-23T07:16:49.736Z,11.84
2022-09-23T07:17:49.710Z,11.86
2022-09-23T07:18:49.603Z,11.83
2022-09-23T07:19:49.630Z,11.9
2022-09-23T07:20:49.884Z,11.99
2022-09-23T07:21:49.960Z,12.08
2022-09-23T07:22:49.596Z,12.04
2022-09-23T07:23:49.594Z,12.1
2022-09-23T07:24:49.520Z,12.24
2022-09-23T07:25:55.632Z,12.25
2022-09-23T07:26:49.685Z,12.24
2022-09-23T07:27:49.578Z,12.2
2022-09-23T07:28:49.558Z,12.14
2022-09-23T07:29:49.610Z,12.13
2022-09-23T07:30:59.561Z,12.21
2022-09-23T07:31:49.648Z,12.31
2022-09-23T07:32:49.917Z,12.43
2022-09-23T07:33:49.576Z,12.43
2022-09-23T07:34:49.620Z,12.48
2022-09-23T07:35:49.693Z,12.48
2022-09-23T07:36:55.610Z,12.34
2022-09-23T07:37:49.630Z,12.29
2022-09-23T07:38:49.534Z,12.31
2022-09-23T07:39:49.664Z,12.34
2022-09-23T07:40:49.776Z,12.44
2022-09-23T07:41:49.621Z,12.53
2022-09-23T07:42:49.516Z,12.54
2022-09-23T07:43:49.639Z,12.56
2022-09-23T07:44:49.583Z,12.62
2022-09-23T07:45:49.948Z,12.49
2022-09-23T07:46:49.784Z,12.42
2022-09-23T07:47:52.682Z,12.44
2022-09-23T07:48:49.727Z,12.33
2022-09-23T07:49:49.708Z,12.27
2022-09-23T07:50:49.888Z,12.31
2022-09-23T07:51:49.875Z,12.43
2022-09-23T07:52:49.579Z,12.53
2022-09-23T07:53:49.525Z,12.57
2022-09-23T07:54:49.502Z,12.59
2022-09-23T07:55:49.953Z,12.64
2022-09-23T07:56:49.593Z,12.64
2022-09-23T07:57:49.630Z,12.44
2022-09-23T07:58:52.716Z,12.37
2022-09-23T07:59:49.717Z,12.4
2022-09-23T08:00:49.896Z,12.44
2022-09-23T08:01:49.750Z,12.46
2022-09-23T08:02:52.808Z,12.42
2022-09-23T08:03:49.618Z,12.41
2022-09-23T08:04:49.537Z,12.39
2022-09-23T08:05:49.953Z,12.47
2022-09-23T08:06:49.883Z,12.56
2022-09-23T08:07:49.717Z,12.58
2022-09-23T08:08:53.160Z,12.62
2022-09-23T08:09:52.652Z,12.71
2022-09-23T08:10:49.882Z,12.83
2022-09-23T08:11:49.721Z,12.87
2022-09-23T08:12:49.786Z,12.94
2022-09-23T08:13:49.561Z,12.98
2022-09-23T08:14:49.520Z,13.08
2022-09-23T08:15:54.704Z,13.23
2022-09-23T08:16:49.520Z,13.31
2022-09-23T08:17:49.522Z,13.52
2022-09-23T08:18:49.547Z,13.59
2022-09-23T08:19:49.525Z,13.6
2022-09-23T08:20:55.622Z,13.58
2022-09-23T08:21:49.881Z,13.6
2022-09-23T08:22:49.608Z,13.64
2022-09-23T08:23:49.577Z,13.66
2022-09-23T08:24:50.186Z,13.71
2022-09-23T08:25:49.888Z,13.69
2022-09-23T08:26:49.605Z,13.46
2022-09-23T08:27:49.499Z,13.39
2022-09-23T08:28:49.544Z,13.46
2022-09-23T08:29:49.622Z,13.5
2022-09-23T08:30:49.666Z,13.48
2022-09-23T08:31:52.642Z,13.45
2022-09-23T08:32:49.708Z,13.49
2022-09-23T08:33:49.582Z,13.59
2022-09-23T08:34:49.534Z,13.69
2022-09-23T08:35:49.957Z,13.73
2022-09-23T08:36:49.878Z,13.84
2022-09-23T08:37:49.523Z,13.89
2022-09-23T08:38:49.513Z,13.97
2022-09-23T08:39:49.509Z,14.02
2022-09-23T08:40:49.633Z,14.04
2022-09-23T08:41:49.512Z,14.06
2022-09-23T08:42:52.612Z,14.15
2022-09-23T08:43:49.704Z,14.15
2022-09-23T08:44:49.714Z,14.13
2022-09-23T08:45:49.917Z,14.18
2022-09-23T08:46:49.674Z,14.25
2022-09-23T08:47:49.584Z,14.25
2022-09-23T08:48:49.631Z,14.31
2022-09-23T08:49:49.938Z,14.37
2022-09-23T08:50:49.885Z,14.4
2022-09-23T08:51:49.895Z,14.46
2022-09-23T08:52:49.725Z,14.54
2022-09-23T08:53:52.642Z,14.61
2022-09-23T08:54:54.548Z,14.6
2022-09-23T08:55:49.877Z,14.55
2022-09-23T08:56:49.591Z,14.52
2022-09-23T08:58:02.400Z,14.56
2022-09-23T08:58:49.613Z,14.52
2022-09-23T08:59:49.650Z,14.43
2022-09-23T09:00:49.948Z,14.38
2022-09-23T09:01:49.707Z,14.32
2022-09-23T09:02:49.608Z,14.27
2022-09-23T09:03:49.512Z,14.33
2022-09-23T09:04:52.570Z,14.51
2022-09-23T09:05:54.133Z,14.58
2022-09-23T09:06:53.010Z,14.55
2022-09-23T09:07:49.635Z,14.64
2022-09-23T09:08:49.523Z,14.82
2022-09-23T09:09:49.611Z,14.98
2022-09-23T09:10:49.610Z,15.09
2022-09-23T09:11:49.667Z,15.2
2022-09-23T09:12:49.620Z,15.26
2022-09-23T09:13:49.639Z,15.37
2022-09-23T09:14:49.717Z,15.51
2022-09-23T09:15:55.661Z,15.64
2022-09-23T09:16:59.426Z,15.78
2022-09-23T09:17:49.608Z,15.99
2022-09-23T09:18:49.710Z,16.2
2022-09-23T09:19:49.604Z,16.38
2022-09-23T09:20:49.947Z,16.38
2022-09-23T09:21:49.877Z,16.45
2022-09-23T09:22:49.611Z,16.61
2022-09-23T09:23:49.657Z,16.53
2022-09-23T09:24:49.687Z,16.64
2022-09-23T09:25:49.946Z,16.83
2022-09-23T09:26:52.570Z,16.85
2022-09-23T09:27:49.698Z,16.8
2022-09-23T09:28:49.534Z,16.88
2022-09-23T09:29:50.167Z,17.04
2022-09-23T09:30:49.936Z,16.99
2022-09-23T09:31:49.608Z,16.76
2022-09-23T09:32:49.609Z,16.55
2022-09-23T09:33:49.560Z,16.28
2022-09-23T09:34:49.611Z,16.16
2022-09-23T09:35:49.952Z,16.04
2022-09-23T09:36:49.880Z,16
2022-09-23T09:37:53.586Z,15.9
2022-09-23T09:38:49.749Z,15.81
2022-09-23T09:39:49.693Z,15.75
2022-09-23T09:40:50.011Z,15.73
2022-09-23T09:41:49.652Z,15.71
2022-09-23T09:42:49.534Z,15.72
2022-09-23T09:43:49.505Z,15.83
2022-09-23T09:44:49.512Z,15.97
2022-09-23T09:45:53.828Z,16.06
2022-09-23T09:46:49.700Z,16.24
2022-09-23T09:47:49.510Z,16.38
2022-09-23T09:48:52.536Z,16.39
2022-09-23T09:49:49.733Z,16.44
2022-09-23T09:50:49.911Z,16.52
2022-09-23T09:51:49.881Z,16.54
2022-09-23T09:52:49.611Z,16.52
2022-09-23T09:53:49.607Z,16.54
2022-09-23T09:54:49.605Z,16.56
2022-09-23T09:55:49.897Z,16.6
2022-09-23T09:56:49.555Z,16.7
2022-09-23T09:57:49.491Z,16.84
2022-09-23T09:58:49.587Z,16.97
2022-09-23T09:59:52.580Z,17.07
2022-09-23T10:00:49.824Z,17.09
2022-09-23T10:01:49.722Z,17.18
2022-09-23T10:02:49.679Z,17.25
2022-09-23T10:03:49.675Z,17.25
2022-09-23T10:04:49.714Z,17.19
2022-09-23T10:05:49.569Z,17.25
2022-09-23T10:06:49.893Z,17.3
2022-09-23T10:07:49.644Z,17.3
2022-09-23T10:08:49.470Z,17.36
2022-09-23T10:09:49.463Z,17.36
2022-09-23T10:10:55.585Z,17.37
2022-09-23T10:11:49.562Z,17.42
2022-09-23T10:12:49.529Z,17.51
2022-09-23T10:13:49.644Z,17.44
2022-09-23T10:14:49.597Z,17.2
2022-09-23T10:15:49.678Z,17.12
2022-09-23T10:16:52.679Z,17.02
2022-09-23T10:17:49.568Z,17.09
2022-09-23T10:18:49.564Z,17.1
2022-09-23T10:19:49.651Z,16.96
2022-09-23T10:20:49.888Z,16.79
2022-09-23T10:21:49.821Z,16.74
2022-09-23T10:22:49.490Z,16.82
2022-09-23T10:23:49.549Z,16.92
2022-09-23T10:24:49.637Z,17.1
2022-09-23T10:25:49.899Z,17.21
2022-09-23T10:26:49.673Z,17.32
2022-09-23T10:27:52.477Z,17.44
2022-09-23T10:28:49.519Z,17.65
2022-09-23T10:29:49.457Z,17.89
2022-09-23T10:30:49.959Z,17.96
2022-09-23T10:31:49.548Z,18.08
2022-09-23T10:32:49.457Z,18.16
2022-09-23T10:33:49.451Z,18.26
2022-09-23T10:34:49.467Z,18.29
2022-09-23T10:35:49.884Z,18.18
2022-09-23T10:36:49.823Z,18.15
2022-09-23T10:37:49.641Z,18.26
2022-09-23T10:38:52.562Z,18.41
2022-09-23T10:39:49.646Z,18.59
2022-09-23T10:40:49.694Z,18.74
2022-09-23T10:41:49.571Z,18.72
2022-09-23T10:42:49.557Z,18.63
2022-09-23T10:43:49.624Z,18.6
2022-09-23T10:44:49.610Z,18.67
2022-09-23T10:45:49.953Z,18.66
2022-09-23T10:46:49.869Z,18.67
2022-09-23T10:47:49.698Z,18.65
2022-09-23T10:48:49.526Z,18.58
2022-09-23T10:49:52.626Z,18.55
2022-09-23T10:50:49.830Z,18.68
2022-09-23T10:51:49.840Z,18.96
2022-09-23T10:52:49.553Z,18.98
2022-09-23T10:53:49.615Z,18.92
2022-09-23T10:54:49.559Z,19
2022-09-23T10:55:49.829Z,19.11
2022-09-23T10:56:49.589Z,19.19
2022-09-23T10:57:49.474Z,19.28
2022-09-23T10:58:49.672Z,19.36
2022-09-23T10:59:49.682Z,19.42
2022-09-23T11:00:55.600Z,19.5
2022-09-23T11:01:49.738Z,19.42
2022-09-23T11:02:49.665Z,19.37
2022-09-23T11:03:49.669Z,19.38
2022-09-23T11:04:49.728Z,19.4
2022-09-23T11:05:49.906Z,19.5
2022-09-23T11:06:49.841Z,19.64
2022-09-23T11:07:49.562Z,19.76
2022-09-23T11:08:49.593Z,19.84
2022-09-23T11:09:49.562Z,19.97
2022-09-23T11:10:49.622Z,20
2022-09-23T11:11:52.573Z,19.97
2022-09-23T11:12:49.539Z,19.77
2022-09-23T11:13:54.107Z,19.84
2022-09-23T11:14:49.521Z,20
2022-09-23T11:15:49.906Z,20.05
2022-09-23T11:16:49.670Z,20.07
2022-09-23T11:17:49.455Z,20.01
2022-09-23T11:18:49.478Z,20.05
2022-09-23T11:19:49.467Z,20.13
2022-09-23T11:20:49.909Z,20.22
2022-09-23T11:21:49.845Z,20.23
2022-09-23T11:22:52.654Z,20.18
2022-09-23T11:23:49.643Z,20.02
2022-09-23T11:24:49.492Z,19.85
2022-09-23T11:25:49.914Z,19.85
2022-09-23T11:26:49.661Z,19.82
2022-09-23T11:27:49.680Z,19.86
2022-09-23T11:28:49.479Z,19.88
2022-09-23T11:29:49.622Z,19.96
2022-09-23T11:30:49.996Z,20.02
2022-09-23T11:31:49.667Z,20.11
2022-09-23T11:32:49.756Z,20.21
2022-09-23T11:33:52.609Z,20.3
2022-09-23T11:34:52.634Z,20.42
2022-09-23T11:35:49.915Z,20.49
2022-09-23T11:36:49.659Z,20.49
2022-09-23T11:37:49.586Z,20.48
2022-09-23T11:38:49.545Z,20.51
2022-09-23T11:39:49.510Z,20.56
2022-09-23T11:40:49.607Z,20.49
2022-09-23T11:41:49.467Z,20.41
2022-09-23T11:42:49.487Z,20.43
2022-09-23T11:43:49.605Z,20.55
2022-09-23T11:44:52.621Z,20.68
2022-09-23T11:45:50.040Z,20.73
2022-09-23T11:46:49.624Z,20.87
2022-09-23T11:47:49.581Z,21.11
2022-09-23T11:48:49.576Z,21.22
2022-09-23T11:49:49.579Z,21.3
2022-09-23T11:50:49.847Z,21.27
2022-09-23T11:51:50.027Z,21.3
2022-09-23T11:52:49.642Z,21.49
2022-09-23T11:53:49.620Z,21.56
2022-09-23T11:54:49.684Z,21.66
2022-09-23T11:55:58.020Z,21.88
2022-09-23T11:56:49.578Z,22.04
2022-09-23T11:57:49.725Z,21.95
2022-09-23T11:58:53.532Z,21.92
2022-09-23T11:59:49.555Z,21.99
2022-09-23T12:00:52.550Z,22.25
2022-09-23T12:01:49.691Z,22.52
2022-09-23T12:02:59.648Z,22.74
2022-09-23T12:03:49.711Z,22.85
2022-09-23T12:04:56.394Z,22.92
2022-09-23T12:05:49.985Z,22.88
2022-09-23T12:06:55.576Z,22.89
2022-09-23T12:07:49.661Z,22.92
2022-09-23T12:08:49.629Z,23.06
2022-09-23T12:09:58.299Z,23.07
2022-09-23T12:10:49.678Z,23.01
2022-09-23T12:11:49.577Z,23.04
2022-09-23T12:12:49.498Z,23.05
2022-09-23T12:13:49.596Z,22.88
2022-09-23T12:14:49.636Z,22.74
2022-09-23T12:15:49.925Z,22.64
2022-09-23T12:16:49.734Z,22.44
2022-09-23T12:17:52.663Z,22.27
2022-09-23T12:18:49.544Z,22.27
2022-09-23T12:19:49.620Z,22.26
2022-09-23T12:20:49.865Z,22.14
2022-09-23T12:21:51.066Z,22.07
2022-09-23T12:22:49.631Z,22.07
2022-09-23T12:23:49.490Z,22
2022-09-23T12:24:49.479Z,22.06
2022-09-23T12:25:49.853Z,22.16
2022-09-23T12:26:49.567Z,22.15
2022-09-23T12:27:49.611Z,22.17
2022-09-23T12:28:52.553Z,22
2022-09-23T12:29:49.680Z,21.83
2022-09-23T12:30:50.004Z,21.76
2022-09-23T12:31:49.577Z,21.59
2022-09-23T12:32:49.599Z,21.43
2022-09-23T12:33:49.673Z,21.31
2022-09-23T12:34:49.617Z,21.17
2022-09-23T12:35:49.927Z,21.17
2022-09-23T12:36:50.054Z,21.18
2022-09-23T12:37:49.695Z,21.12
2022-09-23T12:38:49.623Z,21.14
2022-09-23T12:39:52.565Z,21.22
2022-09-23T12:40:49.929Z,21.4
2022-09-23T12:41:49.675Z,21.44
2022-09-23T12:42:49.673Z,21.32
2022-09-23T12:43:49.578Z,21.4
2022-09-23T12:44:49.491Z,21.51
2022-09-23T12:45:50.650Z,21.62
2022-09-23T12:46:49.493Z,21.74
2022-09-23T12:47:49.486Z,21.77
2022-09-23T12:48:49.496Z,21.75
2022-09-23T12:49:49.494Z,21.75
2022-09-23T12:50:52.598Z,21.88
2022-09-23T12:51:49.837Z,22.08
2022-09-23T12:52:49.683Z,22.31
2022-09-23T12:53:49.627Z,22.46
2022-09-23T12:54:49.861Z,22.58
2022-09-23T12:55:49.876Z,22.61
2022-09-23T12:56:49.613Z,22.63
2022-09-23T12:57:49.479Z,22.68
2022-09-23T12:58:49.603Z,22.84
2022-09-23T12:59:49.867Z,23.02
2022-09-23T13:00:49.746Z,23
2022-09-23T13:01:52.821Z,23.05
2022-09-23T13:02:49.660Z,23.07
2022-09-23T13:03:49.582Z,23.02
2022-09-23T13:04:49.941Z,22.9
2022-09-23T13:05:49.661Z,22.75
2022-09-23T13:06:49.511Z,22.85
2022-09-23T13:07:49.484Z,23.08